createdAt,value
2022-07-28T00:00:39.013Z,14.44
2022-07-28T00:01:39.000Z,14.48
2022-07-28T00:02:38.947Z,14.41
2022-07-28T00:03:38.840Z,14.36
2022-07-28T00:04:38.777Z,14.35
2022-07-28T00:05:38.741Z,14.41
2022-07-28T00:06:38.689Z,14.45
2022-07-28T00:07:38.624Z,14.48
2022-07-28T00:08:38.576Z,14.53
2022-07-28T00:09:38.527Z,14.43
2022-07-28T00:10:38.471Z,14.35
2022-07-28T00:11:50.259Z,14.40
2022-07-28T00:12:38.392Z,14.44
2022-07-28T00:13:38.318Z,14.43
2022-07-28T00:14:38.263Z,14.50
2022-07-28T00:15:38.315Z,14.43
2022-07-28T00:16:38.201Z,14.37
2022-07-28T00:17:38.124Z,14.45
2022-07-28T00:18:38.055Z,14.58
2022-07-28T00:19:38.020Z,14.40
2022-07-28T00:20:37.955Z,14.43
2022-07-28T00:21:37.902Z,14.37
2022-07-28T00:22:37.853Z,14.47
2022-07-28T00:23:39.395Z,14.40
2022-07-28T00:24:37.751Z,14.45
2022-07-28T00:25:37.700Z,14.47
2022-07-28T00:26:37.643Z,14.41
2022-07-28T00:27:37.648Z,14.45
2022-07-28T00:28:37.558Z,14.50
2022-07-28T00:29:50.495Z,14.44
2022-07-28T00:30:37.440Z,14.47
2022-07-28T00:31:37.438Z,14.53
2022-07-28T00:32:37.337Z,14.50
2022-07-28T00:33:37.299Z,14.58
2022-07-28T00:34:37.247Z,14.55
2022-07-28T00:35:37.197Z,14.48
2022-07-28T00:36:37.130Z,14.51
2022-07-28T00:37:39.717Z,14.50
2022-07-28T00:38:37.041Z,14.53
2022-07-28T00:39:36.976Z,14.50
2022-07-28T00:40:36.922Z,14.43
2022-07-28T00:41:36.874Z,14.41
2022-07-28T00:42:36.824Z,14.28
2022-07-28T00:43:36.786Z,14.36
2022-07-28T00:44:36.723Z,14.22
2022-07-28T00:45:36.667Z,14.17
2022-07-28T00:46:36.738Z,14.20
2022-07-28T00:47:36.571Z,14.08
2022-07-28T00:48:36.557Z,14.15
2022-07-28T00:49:36.481Z,14.22
2022-07-28T00:50:36.408Z,14.20
2022-07-28T00:51:36.374Z,14.17
2022-07-28T00:52:36.309Z,14.18
2022-07-28T00:53:36.258Z,14.22
2022-07-28T00:54:36.200Z,14.20
2022-07-28T00:56:06.408Z,14.26
2022-07-28T00:56:36.114Z,14.26
2022-07-28T00:57:36.065Z,14.17
2022-07-28T00:58:36.005Z,14.20
2022-07-28T00:59:35.964Z,14.23
2022-07-28T01:00:35.895Z,14.26
2022-07-28T01:01:35.879Z,14.22
2022-07-28T01:02:35.892Z,14.20
2022-07-28T01:03:35.739Z,14.26
2022-07-28T01:04:35.704Z,14.25
2022-07-28T01:05:43.795Z,14.15
2022-07-28T01:06:35.588Z,14.12
2022-07-28T01:07:35.531Z,14.12
2022-07-28T01:08:35.480Z,14.14
2022-07-28T01:09:35.441Z,14.08
2022-07-28T01:10:35.378Z,14.12
2022-07-28T01:11:42.554Z,14.17
2022-07-28T01:12:35.275Z,14.15
2022-07-28T01:13:35.221Z,14.11
2022-07-28T01:14:35.196Z,14.25
2022-07-28T01:15:35.125Z,14.22
2022-07-28T01:16:35.131Z,14.08
2022-07-28T01:17:35.025Z,14.14
2022-07-28T01:18:34.964Z,14.08
2022-07-28T01:19:34.928Z,14.20
2022-07-28T01:20:34.874Z,14.18
2022-07-28T01:21:34.810Z,14.12
2022-07-28T01:22:34.760Z,14.08
2022-07-28T01:23:34.705Z,14.05
2022-07-28T01:24:34.652Z,14.11
2022-07-28T01:25:34.617Z,14.04
2022-07-28T01:26:34.565Z,14.05
2022-07-28T01:27:34.498Z,14.04
2022-07-28T01:28:34.451Z,14.00
2022-07-28T01:29:34.395Z,14.03
2022-07-28T01:30:34.359Z,13.93
2022-07-28T01:31:34.420Z,13.93
2022-07-28T01:32:34.258Z,13.92
2022-07-28T01:33:34.186Z,13.92
2022-07-28T01:34:34.142Z,13.93
2022-07-28T01:35:34.086Z,13.89
2022-07-28T01:36:34.057Z,13.90
2022-07-28T01:37:34.001Z,13.85
2022-07-28T01:38:33.932Z,13.90
2022-07-28T01:39:33.878Z,13.83
2022-07-28T01:40:33.826Z,13.86
2022-07-28T01:41:33.776Z,13.79
2022-07-28T01:42:33.748Z,13.81
2022-07-28T01:43:33.673Z,13.81
2022-07-28T01:44:33.625Z,13.87
2022-07-28T01:45:33.574Z,13.79
2022-07-28T01:46:33.578Z,13.77
2022-07-28T01:47:33.468Z,13.75
2022-07-28T01:48:33.470Z,13.75
2022-07-28T01:49:33.379Z,13.70
2022-07-28T01:50:33.308Z,13.72
2022-07-28T01:51:33.266Z,13.74
2022-07-28T01:52:33.206Z,13.62
2022-07-28T01:53:37.609Z,13.52
2022-07-28T01:54:33.107Z,13.42
2022-07-28T01:55:33.051Z,13.42
2022-07-28T01:56:33.023Z,13.35
2022-07-28T01:57:32.949Z,13.39
2022-07-28T01:58:32.908Z,13.28
2022-07-28T01:59:32.844Z,13.31
2022-07-28T02:00:32.790Z,13.37
2022-07-28T02:01:32.794Z,13.28
2022-07-28T02:02:32.713Z,13.30
2022-07-28T02:03:32.680Z,13.30
2022-07-28T02:04:32.635Z,13.33
2022-07-28T02:05:32.589Z,13.37
2022-07-28T02:06:32.478Z,13.31
2022-07-28T02:07:32.429Z,13.28
2022-07-28T02:08:32.390Z,13.27
2022-07-28T02:09:32.325Z,13.22
2022-07-28T02:10:32.277Z,13.19
2022-07-28T02:11:32.243Z,13.03
2022-07-28T02:12:32.180Z,13.05
2022-07-28T02:13:32.125Z,13.03
2022-07-28T02:14:32.069Z,13.08
2022-07-28T02:15:32.104Z,13.01
2022-07-28T02:16:31.981Z,13.08
2022-07-28T02:17:31.911Z,13.05
2022-07-28T02:18:31.885Z,13.04
2022-07-28T02:19:31.819Z,12.97
2022-07-28T02:20:31.757Z,12.85
2022-07-28T02:21:31.721Z,12.87
2022-07-28T02:22:31.651Z,12.80
2022-07-28T02:23:31.600Z,12.91
2022-07-28T02:24:31.546Z,12.85
2022-07-28T02:25:31.507Z,12.87
2022-07-28T02:26:31.484Z,12.79
2022-07-28T02:27:31.410Z,12.82
2022-07-28T02:28:31.358Z,12.90
2022-07-28T02:29:50.381Z,12.87
2022-07-28T02:30:31.235Z,12.83
2022-07-28T02:31:31.228Z,12.83
2022-07-28T02:32:31.146Z,12.90
2022-07-28T02:33:59.526Z,12.85
2022-07-28T02:34:31.028Z,12.93
2022-07-28T02:35:32.015Z,12.85
2022-07-28T02:36:31.303Z,12.82
2022-07-28T02:37:30.889Z,12.86
2022-07-28T02:38:30.816Z,12.76
2022-07-28T02:39:30.769Z,12.82
2022-07-28T02:40:30.761Z,12.82
2022-07-28T02:41:30.660Z,12.72
2022-07-28T02:42:30.619Z,12.64
2022-07-28T02:43:45.794Z,12.61
2022-07-28T02:44:30.504Z,12.60
2022-07-28T02:45:30.465Z,12.65
2022-07-28T02:46:30.437Z,12.62
2022-07-28T02:47:30.345Z,12.62
2022-07-28T02:48:30.307Z,12.49
2022-07-28T02:49:30.239Z,12.45
2022-07-28T02:50:30.198Z,12.43
2022-07-28T02:51:30.139Z,12.45
2022-07-28T02:52:30.104Z,12.40
2022-07-28T02:53:30.049Z,12.42
2022-07-28T02:54:29.979Z,12.42
2022-07-28T02:55:29.931Z,12.39
2022-07-28T02:56:29.879Z,12.25
2022-07-28T02:57:29.843Z,12.31
2022-07-28T02:58:29.769Z,12.27
2022-07-28T02:59:29.729Z,12.22
2022-07-28T03:00:29.670Z,12.20
2022-07-28T03:01:29.644Z,12.15
2022-07-28T03:02:29.577Z,12.12
2022-07-28T03:03:29.511Z,12.12
2022-07-28T03:04:29.471Z,12.07
2022-07-28T03:05:29.459Z,12.13
2022-07-28T03:06:29.351Z,12.22
2022-07-28T03:07:29.314Z,12.22
2022-07-28T03:08:29.269Z,12.17
2022-07-28T03:09:29.194Z,12.20
2022-07-28T03:10:33.649Z,12.18
2022-07-28T03:11:29.112Z,12.20
2022-07-28T03:12:29.040Z,12.13
2022-07-28T03:13:28.990Z,12.13
2022-07-28T03:14:28.950Z,12.18
2022-07-28T03:15:28.884Z,12.09
2022-07-28T03:16:28.876Z,12.24
2022-07-28T03:17:28.775Z,12.27
2022-07-28T03:18:28.721Z,12.21
2022-07-28T03:19:28.689Z,12.20
2022-07-28T03:20:28.615Z,12.20
2022-07-28T03:21:28.563Z,12.12
2022-07-28T03:22:28.512Z,12.21
2022-07-28T03:23:28.461Z,12.09
2022-07-28T03:24:28.407Z,12.10
2022-07-28T03:25:28.371Z,12.04
2022-07-28T03:26:28.311Z,12.04
2022-07-28T03:27:28.249Z,12.02
2022-07-28T03:28:28.198Z,12.06
2022-07-28T03:29:28.167Z,12.03
2022-07-28T03:30:28.115Z,11.95
2022-07-28T03:31:28.059Z,11.87
2022-07-28T03:32:27.994Z,11.91
2022-07-28T03:33:27.937Z,11.86
2022-07-28T03:34:27.902Z,11.91
2022-07-28T03:35:27.854Z,11.95
2022-07-28T03:36:27.802Z,12.00
2022-07-28T03:37:27.726Z,12.02
2022-07-28T03:38:27.683Z,11.91
2022-07-28T03:39:27.628Z,11.94
2022-07-28T03:40:27.585Z,12.07
2022-07-28T03:41:27.512Z,11.99
2022-07-28T03:42:27.491Z,11.94
2022-07-28T03:43:27.408Z,11.97
2022-07-28T03:44:27.834Z,12.03
2022-07-28T03:45:27.327Z,12.04
2022-07-28T03:46:27.276Z,12.00
2022-07-28T03:47:27.204Z,12.02
2022-07-28T03:48:27.162Z,12.04
2022-07-28T03:49:27.090Z,12.04
2022-07-28T03:50:27.060Z,11.90
2022-07-28T03:51:26.988Z,11.97
2022-07-28T03:52:26.940Z,11.90
2022-07-28T03:53:26.895Z,11.84
2022-07-28T03:54:26.831Z,11.83
2022-07-28T03:55:26.791Z,11.81
2022-07-28T03:56:26.732Z,11.88
2022-07-28T03:57:26.697Z,11.87
2022-07-28T03:58:28.892Z,12.02
2022-07-28T03:59:26.570Z,12.04
2022-07-28T04:00:26.518Z,12.04
2022-07-28T04:01:26.513Z,12.07
2022-07-28T04:02:26.515Z,12.03
2022-07-28T04:03:42.668Z,12.10
2022-07-28T04:04:26.311Z,12.17
2022-07-28T04:05:26.256Z,12.09
2022-07-28T04:06:26.206Z,12.06
2022-07-28T04:07:26.161Z,12.10
2022-07-28T04:08:26.114Z,12.02
2022-07-28T04:09:26.045Z,12.13
2022-07-28T04:10:25.989Z,12.20
2022-07-28T04:11:25.936Z,12.20
2022-07-28T04:12:25.881Z,12.04
2022-07-28T04:13:25.838Z,12.02
2022-07-28T04:14:26.009Z,12.12
2022-07-28T04:15:25.723Z,12.00
2022-07-28T04:16:25.709Z,12.03
2022-07-28T04:17:25.613Z,12.20
2022-07-28T04:18:25.583Z,12.17
2022-07-28T04:19:25.509Z,12.20
2022-07-28T04:20:25.458Z,12.09
2022-07-28T04:21:25.404Z,12.15
2022-07-28T04:22:25.353Z,12.07
2022-07-28T04:23:25.333Z,12.20
2022-07-28T04:24:25.251Z,12.18
2022-07-28T04:25:25.202Z,12.18
2022-07-28T04:26:25.141Z,12.15
2022-07-28T04:27:25.105Z,12.21
2022-07-28T04:28:25.055Z,12.12
2022-07-28T04:29:27.322Z,12.20
2022-07-28T04:30:25.090Z,12.24
2022-07-28T04:31:24.958Z,12.21
2022-07-28T04:32:24.828Z,12.20
2022-07-28T04:33:24.789Z,12.22
2022-07-28T04:34:24.721Z,12.25
2022-07-28T04:35:24.671Z,12.28
2022-07-28T04:36:24.610Z,12.32
2022-07-28T04:37:24.594Z,12.29
2022-07-28T04:38:24.511Z,12.28
2022-07-28T04:39:24.461Z,12.39
2022-07-28T04:40:24.408Z,12.36
2022-07-28T04:41:24.345Z,12.43
2022-07-28T04:42:24.405Z,12.46
2022-07-28T04:43:24.261Z,12.53
2022-07-28T04:44:24.215Z,12.54
2022-07-28T04:45:24.136Z,12.49
2022-07-28T04:46:24.174Z,12.50
2022-07-28T04:47:24.262Z,12.62
2022-07-28T04:48:23.996Z,12.67
2022-07-28T04:49:23.980Z,12.61
2022-07-28T04:50:23.878Z,12.62
2022-07-28T04:51:23.844Z,12.78
2022-07-28T04:52:23.781Z,12.70
2022-07-28T04:53:23.718Z,12.76
2022-07-28T04:54:26.694Z,12.80
2022-07-28T04:55:23.617Z,12.78
2022-07-28T04:56:23.577Z,12.85
2022-07-28T04:57:23.504Z,12.91
2022-07-28T04:58:23.524Z,12.87
2022-07-28T04:59:23.401Z,12.87
2022-07-28T05:00:23.347Z,12.98
2022-07-28T05:01:23.458Z,13.04
2022-07-28T05:02:23.247Z,13.04
2022-07-28T05:03:23.202Z,13.05
2022-07-28T05:04:23.164Z,13.03
2022-07-28T05:05:23.101Z,13.03
2022-07-28T05:06:23.037Z,13.01
2022-07-28T05:07:22.988Z,13.18
2022-07-28T05:08:26.482Z,13.18
2022-07-28T05:09:22.874Z,13.27
2022-07-28T05:10:22.841Z,13.31
2022-07-28T05:11:22.777Z,13.33
2022-07-28T05:12:22.723Z,13.44
2022-07-28T05:13:22.694Z,13.41
2022-07-28T05:15:55.202Z,13.56
2022-07-28T05:16:55.216Z,13.53
2022-07-28T05:17:55.088Z,13.56
2022-07-28T05:18:55.064Z,13.70
2022-07-28T05:19:55.046Z,13.70
2022-07-28T05:20:54.937Z,13.79
2022-07-28T05:21:54.869Z,13.77
2022-07-28T05:22:54.841Z,13.86
2022-07-28T05:23:54.771Z,13.85
2022-07-28T05:24:54.715Z,13.96
2022-07-28T05:25:54.664Z,13.96
2022-07-28T05:26:54.612Z,13.99
2022-07-28T05:27:54.822Z,14.17
2022-07-28T05:28:54.506Z,14.08
2022-07-28T05:29:54.458Z,14.20
2022-07-28T05:30:54.402Z,14.25
2022-07-28T05:31:54.400Z,14.26
2022-07-28T05:32:54.303Z,14.28
2022-07-28T05:33:54.257Z,14.33
2022-07-28T05:34:54.193Z,14.36
2022-07-28T05:35:54.140Z,14.43
2022-07-28T05:36:54.105Z,14.48
2022-07-28T05:37:54.038Z,14.47
2022-07-28T05:38:53.988Z,14.45
2022-07-28T05:39:53.935Z,14.54
2022-07-28T05:40:53.883Z,14.65
2022-07-28T05:41:53.830Z,14.63
2022-07-28T05:42:53.793Z,14.70
2022-07-28T05:43:53.728Z,14.77
2022-07-28T05:44:53.678Z,14.82
2022-07-28T05:45:53.682Z,14.70
2022-07-28T05:46:53.572Z,14.79
2022-07-28T05:47:53.521Z,14.69
2022-07-28T05:48:53.535Z,14.68
2022-07-28T05:49:53.416Z,14.72
2022-07-28T05:50:53.382Z,14.72
2022-07-28T05:51:53.316Z,14.85
2022-07-28T05:52:53.277Z,14.88
2022-07-28T05:53:53.207Z,14.99
2022-07-28T05:54:53.159Z,14.96
2022-07-28T05:56:01.227Z,15.04
2022-07-28T05:56:53.069Z,15.06
2022-07-28T05:57:53.003Z,15.07
2022-07-28T05:58:52.952Z,15.06
2022-07-28T05:59:52.900Z,15.15
2022-07-28T06:00:52.895Z,15.21
2022-07-28T06:01:52.821Z,15.29
2022-07-28T06:02:52.757Z,15.21
2022-07-28T06:04:10.096Z,15.36
2022-07-28T06:04:52.652Z,15.42
2022-07-28T06:05:59.222Z,15.37
2022-07-28T06:06:52.538Z,15.44
2022-07-28T06:07:52.512Z,15.54
2022-07-28T06:08:52.439Z,15.55
2022-07-28T06:09:52.384Z,15.57
2022-07-28T06:10:52.335Z,15.58
2022-07-28T06:11:52.282Z,15.65
2022-07-28T06:12:52.246Z,15.70
2022-07-28T06:13:52.209Z,15.77
2022-07-28T06:14:52.144Z,15.80
2022-07-28T06:15:52.093Z,15.80
2022-07-28T06:16:52.133Z,15.84
2022-07-28T06:17:51.975Z,15.91
2022-07-28T06:18:51.922Z,16.00
2022-07-28T06:19:51.871Z,16.04
2022-07-28T06:20:51.834Z,16.02
2022-07-28T06:21:51.769Z,16.12
2022-07-28T06:22:51.720Z,16.15
2022-07-28T06:23:51.683Z,16.26
2022-07-28T06:24:51.617Z,16.28
2022-07-28T06:25:51.566Z,16.35
2022-07-28T06:26:51.515Z,16.36
2022-07-28T06:27:51.465Z,16.46
2022-07-28T06:28:51.426Z,16.38
2022-07-28T06:29:51.364Z,16.39
2022-07-28T06:30:51.311Z,16.56
2022-07-28T06:31:51.355Z,16.56
2022-07-28T06:32:51.210Z,16.60
2022-07-28T06:33:51.159Z,16.65
2022-07-28T06:34:51.108Z,16.65
2022-07-28T06:35:51.658Z,16.69
2022-07-28T06:36:51.021Z,16.76
2022-07-28T06:37:50.959Z,16.79
2022-07-28T06:38:50.904Z,16.79
2022-07-28T06:39:50.852Z,16.86
2022-07-28T06:40:50.815Z,16.86
2022-07-28T06:41:50.756Z,16.81
2022-07-28T06:42:50.701Z,16.79
2022-07-28T06:43:50.652Z,16.79
2022-07-28T06:44:58.992Z,16.81
2022-07-28T06:45:50.566Z,16.84
2022-07-28T06:46:50.587Z,16.78
2022-07-28T06:47:50.454Z,16.78
2022-07-28T06:48:50.478Z,16.84
2022-07-28T06:49:50.348Z,16.76
2022-07-28T06:50:50.294Z,16.75
2022-07-28T06:51:50.253Z,16.76
2022-07-28T06:52:50.194Z,16.68
2022-07-28T06:53:50.159Z,16.71
2022-07-28T06:54:52.284Z,16.64
2022-07-28T06:55:50.187Z,16.66
2022-07-28T06:56:50.007Z,16.60
2022-07-28T06:57:49.940Z,16.69
2022-07-28T06:58:49.890Z,16.64
2022-07-28T06:59:49.842Z,16.58
2022-07-28T07:00:49.947Z,16.74
2022-07-28T07:01:49.738Z,16.56
2022-07-28T07:02:49.694Z,16.60
2022-07-28T07:03:49.674Z,16.58
2022-07-28T07:04:49.590Z,16.66
2022-07-28T07:05:51.593Z,16.64
2022-07-28T07:06:49.486Z,16.60
2022-07-28T07:07:49.436Z,16.60
2022-07-28T07:08:49.402Z,16.57
2022-07-28T07:09:49.345Z,16.61
2022-07-28T07:10:49.282Z,16.58
2022-07-28T07:11:49.233Z,16.65
2022-07-28T07:12:49.182Z,16.58
2022-07-28T07:13:49.147Z,16.61
2022-07-28T07:14:49.077Z,16.64
2022-07-28T07:15:49.108Z,16.71
2022-07-28T07:16:48.994Z,16.66
2022-07-28T07:17:48.929Z,16.68
2022-07-28T07:18:48.892Z,16.78
2022-07-28T07:19:48.830Z,16.75
2022-07-28T07:20:48.785Z,16.78
2022-07-28T07:21:48.732Z,16.83
2022-07-28T07:22:48.677Z,16.90
2022-07-28T07:23:48.646Z,16.87
2022-07-28T07:24:50.494Z,17.01
2022-07-28T07:25:48.524Z,16.87
2022-07-28T07:26:48.476Z,16.96
2022-07-28T07:27:48.438Z,16.94
2022-07-28T07:28:48.377Z,17.02
2022-07-28T07:29:48.323Z,17.15
2022-07-28T07:30:48.287Z,17.16
2022-07-28T07:31:48.251Z,17.12
2022-07-28T07:32:48.171Z,17.19
2022-07-28T07:33:48.127Z,17.26
2022-07-28T07:34:48.087Z,17.26
2022-07-28T07:35:48.021Z,17.38
2022-07-28T07:36:47.974Z,17.38
2022-07-28T07:37:47.922Z,17.39
2022-07-28T07:38:47.870Z,17.54
2022-07-28T07:39:47.822Z,17.52
2022-07-28T07:40:47.785Z,17.63
2022-07-28T07:41:47.750Z,17.68
2022-07-28T07:42:47.678Z,17.65
2022-07-28T07:43:48.007Z,17.74
2022-07-28T07:44:50.261Z,17.78
2022-07-28T07:45:47.521Z,17.86
2022-07-28T07:46:47.519Z,17.89
2022-07-28T07:47:47.422Z,17.87
2022-07-28T07:48:47.409Z,18.01
2022-07-28T07:49:47.345Z,17.98
2022-07-28T07:50:51.816Z,18.05
2022-07-28T07:51:47.218Z,18.18
2022-07-28T07:52:47.168Z,18.23
2022-07-28T07:53:47.118Z,18.26
2022-07-28T07:54:47.086Z,18.29
2022-07-28T07:55:47.023Z,18.49
2022-07-28T07:56:46.967Z,18.50
2022-07-28T07:57:46.917Z,18.62
2022-07-28T07:58:47.822Z,18.65
2022-07-28T07:59:46.817Z,18.71
2022-07-28T08:00:46.783Z,18.74
2022-07-28T08:01:46.763Z,18.83
2022-07-28T08:02:46.668Z,18.88
2022-07-28T08:03:50.046Z,18.95
2022-07-28T08:04:46.605Z,18.93
2022-07-28T08:05:46.545Z,19.08
2022-07-28T08:06:46.470Z,19.09
2022-07-28T08:07:46.434Z,19.14
2022-07-28T08:08:48.488Z,19.29
2022-07-28T08:09:46.321Z,19.22
2022-07-28T08:10:46.271Z,19.40
2022-07-28T08:11:46.223Z,19.47
2022-07-28T08:12:46.188Z,19.58
2022-07-28T08:13:46.138Z,19.77
2022-07-28T08:14:47.902Z,19.84
2022-07-28T08:15:46.049Z,20.02
2022-07-28T08:16:45.992Z,20.07
2022-07-28T08:17:45.929Z,20.06
2022-07-28T08:18:45.876Z,20.07
2022-07-28T08:19:45.825Z,20.09
2022-07-28T08:20:45.781Z,20.19
2022-07-28T08:21:45.746Z,20.19
2022-07-28T08:22:45.680Z,20.36
2022-07-28T08:23:45.637Z,20.37
2022-07-28T08:24:45.582Z,20.44
2022-07-28T08:25:45.549Z,20.58
2022-07-28T08:26:45.485Z,20.85
2022-07-28T08:27:45.473Z,20.96
2022-07-28T08:28:45.405Z,21.24
2022-07-28T08:29:45.338Z,21.35
2022-07-28T08:30:45.288Z,21.43
2022-07-28T08:31:45.292Z,21.62
2022-07-28T08:32:45.204Z,21.83
2022-07-28T08:33:54.271Z,22.08
2022-07-28T08:34:45.099Z,22.26
2022-07-28T08:35:45.045Z,22.32
2022-07-28T08:36:44.999Z,22.38
2022-07-28T08:37:44.987Z,22.76
2022-07-28T08:38:44.900Z,22.85
2022-07-28T08:39:44.859Z,22.81
2022-07-28T08:40:44.807Z,22.87
2022-07-28T08:41:44.760Z,22.94
2022-07-28T08:42:44.723Z,23.03
2022-07-28T08:43:44.666Z,23.13
2022-07-28T08:44:44.612Z,23.61
2022-07-28T08:45:44.567Z,24.03
2022-07-28T08:46:44.586Z,23.99
2022-07-28T08:48:07.326Z,23.99
2022-07-28T08:48:44.482Z,23.92
2022-07-28T08:49:44.373Z,23.81
2022-07-28T08:50:44.343Z,23.66
2022-07-28T08:51:44.282Z,23.56
2022-07-28T08:52:44.246Z,23.51
2022-07-28T08:53:44.187Z,23.81
2022-07-28T08:54:44.138Z,23.77
2022-07-28T08:55:44.092Z,23.74
2022-07-28T08:56:48.128Z,24.03
2022-07-28T08:57:44.013Z,23.93
2022-07-28T08:58:43.954Z,23.80
2022-07-28T08:59:43.905Z,23.74
2022-07-28T09:00:43.857Z,23.66
2022-07-28T09:01:43.911Z,23.78
2022-07-28T09:02:43.849Z,23.92
2022-07-28T09:03:43.902Z,24.39
2022-07-28T09:04:43.670Z,24.70
2022-07-28T09:05:43.622Z,24.98
2022-07-28T09:06:43.577Z,24.89
2022-07-28T09:07:43.542Z,24.78
2022-07-28T09:08:43.542Z,24.86
2022-07-28T09:09:43.439Z,24.86
2022-07-28T09:10:43.393Z,24.92
2022-07-28T09:11:43.358Z,24.89
2022-07-28T09:12:43.299Z,24.74
2022-07-28T09:13:43.265Z,24.69
2022-07-28T09:14:43.203Z,24.58
2022-07-28T09:15:43.190Z,24.47
2022-07-28T09:16:43.132Z,24.45
2022-07-28T09:17:43.103Z,24.48
2022-07-28T09:18:43.019Z,24.55
2022-07-28T09:19:42.978Z,24.53
2022-07-28T09:20:42.968Z,24.65
2022-07-28T09:21:42.899Z,24.98
2022-07-28T09:22:42.850Z,25.16
2022-07-28T09:23:44.533Z,25.26
2022-07-28T09:24:42.745Z,25.50
2022-07-28T09:25:42.698Z,25.60
2022-07-28T09:26:42.652Z,25.50
2022-07-28T09:27:42.622Z,25.80
2022-07-28T09:28:42.564Z,25.96
2022-07-28T09:29:42.518Z,26.18
2022-07-28T09:30:54.327Z,26.59
2022-07-28T09:31:42.487Z,27.20
2022-07-28T09:32:42.406Z,27.37
2022-07-28T09:33:43.944Z,27.17
2022-07-28T09:34:42.291Z,26.81
2022-07-28T09:35:42.245Z,26.90
2022-07-28T09:36:42.207Z,26.90
2022-07-28T09:37:42.164Z,27.02
2022-07-28T09:38:42.126Z,27.14
2022-07-28T09:39:42.070Z,27.30
2022-07-28T09:40:42.020Z,27.45
2022-07-28T09:41:41.979Z,27.52
2022-07-28T09:42:41.936Z,27.59
2022-07-28T09:43:41.914Z,27.93
2022-07-28T09:44:50.752Z,28.32
2022-07-28T09:45:41.801Z,28.62
2022-07-28T09:46:41.969Z,28.82
2022-07-28T09:47:41.936Z,28.93
2022-07-28T09:48:42.001Z,29.10
2022-07-28T09:49:41.685Z,29.50
2022-07-28T09:50:41.583Z,29.86
2022-07-28T09:51:41.538Z,30.03
2022-07-28T09:52:41.494Z,30.25
2022-07-28T09:53:41.461Z,30.44
2022-07-28T09:54:41.585Z,30.24
2022-07-28T09:55:41.377Z,30.43
2022-07-28T09:56:41.322Z,30.59
2022-07-28T09:57:41.597Z,30.69
2022-07-28T09:58:41.254Z,30.70
2022-07-28T09:59:41.212Z,30.53
2022-07-28T10:00:41.151Z,30.02
2022-07-28T10:01:41.152Z,29.94
2022-07-28T10:02:41.145Z,30.19
2022-07-28T10:03:41.030Z,30.15
2022-07-28T10:04:41.009Z,30.21
2022-07-28T10:05:40.957Z,29.87
2022-07-28T10:06:40.929Z,29.42
2022-07-28T10:07:40.855Z,28.75
2022-07-28T10:08:42.023Z,28.23
2022-07-28T10:09:40.768Z,27.82
2022-07-28T10:10:40.733Z,27.65
2022-07-28T10:11:41.819Z,27.32
2022-07-28T10:12:40.643Z,27.32
2022-07-28T10:13:40.598Z,27.59
2022-07-28T10:14:40.569Z,27.86
2022-07-28T10:15:48.220Z,27.71
2022-07-28T10:16:40.504Z,27.78
2022-07-28T10:17:40.436Z,27.96
2022-07-28T10:18:40.401Z,28.04
2022-07-28T10:19:40.342Z,28.23
2022-07-28T10:20:40.304Z,28.47
2022-07-28T10:21:40.257Z,28.81
2022-07-28T10:22:43.237Z,28.78
2022-07-28T10:23:40.194Z,28.97
2022-07-28T10:24:40.131Z,29.05
2022-07-28T10:25:40.097Z,28.97
2022-07-28T10:26:40.106Z,28.67
2022-07-28T10:27:40.005Z,28.29
2022-07-28T10:28:42.356Z,27.95
2022-07-28T10:29:39.917Z,27.75
2022-07-28T10:30:39.898Z,27.71
2022-07-28T10:31:39.835Z,27.52
2022-07-28T10:32:39.973Z,27.48
2022-07-28T10:33:40.383Z,27.51
2022-07-28T10:34:39.706Z,27.70
2022-07-28T10:35:54.370Z,27.98
2022-07-28T10:36:39.624Z,27.96
2022-07-28T10:37:39.579Z,27.58
2022-07-28T10:38:39.551Z,27.49
2022-07-28T10:39:39.502Z,27.26
2022-07-28T10:40:39.453Z,27.10
2022-07-28T10:41:39.420Z,27.07
2022-07-28T10:42:39.384Z,27.30
2022-07-28T10:43:42.893Z,27.77
2022-07-28T10:44:39.286Z,28.01
2022-07-28T10:46:03.344Z,28.26
2022-07-28T10:46:39.420Z,28.75
2022-07-28T10:47:39.156Z,29.07
2022-07-28T10:48:39.928Z,28.76
2022-07-28T10:49:39.068Z,28.42
2022-07-28T10:50:39.034Z,28.49
2022-07-28T10:51:59.833Z,28.82
2022-07-28T10:52:48.252Z,29.12
2022-07-28T10:53:39.507Z,29.45
2022-07-28T10:54:41.008Z,29.86
2022-07-28T10:55:38.828Z,30.19
2022-07-28T10:56:38.800Z,30.43
2022-07-28T10:57:38.744Z,30.66
2022-07-28T10:58:38.686Z,30.81
2022-07-28T10:59:38.647Z,30.92
2022-07-28T11:00:54.944Z,30.97
2022-07-28T11:01:52.119Z,30.99
2022-07-28T11:02:38.712Z,30.84
2022-07-28T11:03:38.587Z,30.69
2022-07-28T11:04:38.452Z,30.68
2022-07-28T11:05:38.396Z,30.88
2022-07-28T11:06:38.370Z,30.77
2022-07-28T11:07:38.326Z,30.84
2022-07-28T11:08:38.281Z,31.05
2022-07-28T11:09:38.231Z,31.15
2022-07-28T11:10:38.189Z,31.21
2022-07-28T11:11:38.161Z,31.03
2022-07-28T11:12:38.123Z,31.12
2022-07-28T11:13:41.055Z,31.25
2022-07-28T11:14:39.419Z,31.49
2022-07-28T11:15:47.434Z,31.65
2022-07-28T11:16:38.010Z,31.89
2022-07-28T11:17:37.989Z,32.03
2022-07-28T11:18:37.893Z,32.16
2022-07-28T11:19:42.476Z,32.15
2022-07-28T11:20:37.836Z,32.36
2022-07-28T11:21:39.685Z,32.37
2022-07-28T11:22:37.725Z,32.26
2022-07-28T11:23:37.692Z,31.80
2022-07-28T11:24:37.625Z,31.27
2022-07-28T11:25:37.582Z,31.34
2022-07-28T11:26:37.601Z,31.42
2022-07-28T11:27:37.510Z,31.52
2022-07-28T11:28:37.501Z,31.47
2022-07-28T11:29:37.435Z,30.94
2022-07-28T11:30:37.456Z,30.70
2022-07-28T11:31:37.388Z,30.77
2022-07-28T11:32:44.112Z,30.81
2022-07-28T11:33:37.291Z,30.96
2022-07-28T11:34:37.249Z,30.83
2022-07-28T11:35:37.196Z,30.70
2022-07-28T11:36:37.156Z,30.34
2022-07-28T11:37:37.146Z,30.00
2022-07-28T11:38:37.092Z,29.75
2022-07-28T11:39:42.742Z,29.47
2022-07-28T11:40:37.004Z,29.34
2022-07-28T11:41:36.939Z,29.24
2022-07-28T11:42:36.898Z,29.32
2022-07-28T11:43:39.111Z,29.04
2022-07-28T11:44:36.843Z,28.54
2022-07-28T11:45:38.918Z,28.38
2022-07-28T11:46:37.659Z,28.27
2022-07-28T11:47:36.747Z,28.37
2022-07-28T11:48:36.731Z,28.20
2022-07-28T11:49:36.655Z,28.04
2022-07-28T11:50:36.643Z,27.92
2022-07-28T11:51:51.525Z,28.25
2022-07-28T11:52:36.532Z,28.25
2022-07-28T11:53:36.695Z,28.26
2022-07-28T11:54:36.433Z,28.20
2022-07-28T11:55:55.510Z,28.26
2022-07-28T11:56:36.385Z,28.32
2022-07-28T11:57:36.287Z,28.08
2022-07-28T11:58:36.286Z,28.11
2022-07-28T11:59:37.191Z,28.29
2022-07-28T12:00:36.209Z,28.66
2022-07-28T12:01:38.368Z,29.13
2022-07-28T12:02:36.166Z,29.71
2022-07-28T12:03:49.312Z,30.15
2022-07-28T12:04:36.081Z,30.61
2022-07-28T12:05:41.553Z,30.80
2022-07-28T12:06:35.969Z,31.02
2022-07-28T12:07:35.926Z,31.21
2022-07-28T12:08:35.848Z,31.21
2022-07-28T12:09:42.351Z,31.03
2022-07-28T12:11:35.730Z,31.06
2022-07-28T12:12:35.698Z,30.85
2022-07-28T12:13:35.680Z,30.37
2022-07-28T12:14:39.060Z,30.16
2022-07-28T12:15:35.576Z,30.27
2022-07-28T12:16:35.550Z,30.44
2022-07-28T12:17:35.503Z,30.59
2022-07-28T12:18:35.449Z,30.77
2022-07-28T12:19:35.399Z,31.00
2022-07-28T12:20:35.357Z,31.17
2022-07-28T12:21:35.331Z,30.91
2022-07-28T12:22:35.284Z,30.48
2022-07-28T12:23:39.379Z,30.51
2022-07-28T12:24:44.686Z,30.77
2022-07-28T12:25:35.142Z,30.99
2022-07-28T12:26:40.738Z,31.17
2022-07-28T12:27:35.061Z,31.37
2022-07-28T12:28:35.066Z,31.66
2022-07-28T12:29:36.110Z,31.89
2022-07-28T12:30:34.952Z,32.04
2022-07-28T12:31:34.986Z,32.23
2022-07-28T12:32:34.891Z,32.26
2022-07-28T12:33:34.850Z,32.09
2022-07-28T12:34:34.811Z,31.94
2022-07-28T12:35:34.760Z,31.90
2022-07-28T12:36:34.720Z,31.62
2022-07-28T12:37:34.662Z,31.54
2022-07-28T12:38:34.638Z,31.10
2022-07-28T12:39:34.696Z,30.96
2022-07-28T12:40:34.540Z,30.70
2022-07-28T12:41:34.494Z,30.54
2022-07-28T12:42:34.493Z,30.47
2022-07-28T12:43:34.432Z,30.39
2022-07-28T12:44:34.378Z,30.34
2022-07-28T12:45:34.380Z,30.57
2022-07-28T12:46:34.314Z,30.68
2022-07-28T12:47:34.259Z,30.53
2022-07-28T12:48:34.255Z,30.25
2022-07-28T12:49:34.176Z,29.66
2022-07-28T12:50:34.138Z,29.12
2022-07-28T12:51:34.119Z,28.85
2022-07-28T12:52:34.062Z,29.04
2022-07-28T12:53:34.026Z,29.22
2022-07-28T12:54:34.050Z,29.41